WZZ2596 LHBP-EDDN
Flight info
| Callsign | WZZ2596 |
|---|---|
| Flight time | 1h 0m |
| Altitude | 32000 |
| Route | GILEP DCT ZOLKU DCT ARSIN DCT SUBEN T161 AKINI Z109 UPALA UPALA1V |
| Aircraft | A320/M-SDE3FGHIRWY/LB1 |
Departure
| Time | 2026-05-04 17:41 |
|---|---|
| Airport | Budapest Liszt Ferenc International Airport (LHBP) |
Arrival
| Time | 2026-05-04 18:42 |
|---|---|
| Airport | Nuremberg Airport (EDDN) |
| Time | Latitude | Longitude | Altitude | Speed | Heading |
|---|---|---|---|---|---|
| 2026-05-04 17:20 | 47.43508 | 19.26475 | 477 ft | 0 kts | 222° |
| 2026-05-04 17:34 | 47.43520 | 19.26490 | 476 ft | 3 kts | 222° |
| 2026-05-04 17:34 | 47.43533 | 19.26507 | 481 ft | 2 kts | 223° |
| 2026-05-04 17:35 | 47.43538 | 19.26536 | 482 ft | 0 kts | 314° |
| 2026-05-04 17:37 | 47.43539 | 19.26534 | 482 ft | 2 kts | 315° |
| 2026-05-04 17:37 | 47.43568 | 19.26498 | 479 ft | 8 kts | 320° |
| 2026-05-04 17:37 | 47.43614 | 19.26430 | 478 ft | 11 kts | 311° |
| 2026-05-04 17:38 | 47.43682 | 19.26352 | 481 ft | 13 kts | 357° |
| 2026-05-04 17:38 | 47.43768 | 19.26417 | 480 ft | 15 kts | 8° |
| 2026-05-04 17:38 | 47.43847 | 19.26320 | 478 ft | 16 kts | 310° |
| 2026-05-04 17:38 | 47.43903 | 19.26231 | 480 ft | 10 kts | 319° |
| 2026-05-04 17:39 | 47.43994 | 19.26260 | 485 ft | 0 kts | 43° |
| 2026-05-04 17:39 | 47.43998 | 19.26265 | 481 ft | 3 kts | 43° |
| 2026-05-04 17:40 | 47.44032 | 19.26319 | 485 ft | 9 kts | 49° |
| 2026-05-04 17:40 | 47.44065 | 19.26413 | 480 ft | 12 kts | 78° |
| 2026-05-04 17:40 | 47.44052 | 19.26548 | 474 ft | 16 kts | 127° |
| 2026-05-04 17:40 | 47.43921 | 19.26753 | 478 ft | 55 kts | 133° |
| 2026-05-04 17:41 | 47.43522 | 19.27405 | 482 ft | 114 kts | 132° |
| 2026-05-04 17:41 | 47.42866 | 19.28454 | 457 ft | 161 kts | 136° |
| 2026-05-04 17:41 | 47.42157 | 19.29733 | 1019 ft | 161 kts | 121° |
| 2026-05-04 17:41 | 47.41603 | 19.31182 | 1609 ft | 165 kts | 125° |
| 2026-05-04 17:42 | 47.41040 | 19.32643 | 2143 ft | 170 kts | 122° |
| 2026-05-04 17:42 | 47.40489 | 19.34210 | 2673 ft | 177 kts | 123° |
| 2026-05-04 17:42 | 47.39845 | 19.35893 | 2938 ft | 199 kts | 123° |
| 2026-05-04 17:42 | 47.39109 | 19.37771 | 3182 ft | 224 kts | 123° |
| 2026-05-04 17:43 | 47.38195 | 19.39756 | 3524 ft | 244 kts | 141° |
| 2026-05-04 17:43 | 47.36637 | 19.40775 | 4074 ft | 253 kts | 178° |
| 2026-05-04 17:43 | 47.34943 | 19.40149 | 4903 ft | 258 kts | 213° |
| 2026-05-04 17:43 | 47.33741 | 19.38224 | 5713 ft | 264 kts | 237° |
| 2026-05-04 17:44 | 47.32893 | 19.35798 | 6564 ft | 269 kts | 245° |
| 2026-05-04 17:44 | 47.32128 | 19.33261 | 7380 ft | 273 kts | 245° |
| 2026-05-04 17:44 | 47.31319 | 19.30712 | 8202 ft | 276 kts | 243° |
| 2026-05-04 17:44 | 47.30430 | 19.28188 | 9025 ft | 279 kts | 240° |
| 2026-05-04 17:45 | 47.29467 | 19.25686 | 9833 ft | 282 kts | 238° |
| 2026-05-04 17:45 | 47.28436 | 19.23166 | 10358 ft | 296 kts | 237° |
| 2026-05-04 17:45 | 47.27312 | 19.20524 | 10808 ft | 309 kts | 237° |
| 2026-05-04 17:45 | 47.26153 | 19.17834 | 11483 ft | 313 kts | 239° |
| 2026-05-04 17:46 | 47.25374 | 19.14830 | 12146 ft | 319 kts | 259° |
| 2026-05-04 17:46 | 47.25403 | 19.11553 | 12845 ft | 325 kts | 279° |
| 2026-05-04 17:46 | 47.25861 | 19.08277 | 13562 ft | 328 kts | 281° |
| 2026-05-04 17:46 | 47.26343 | 19.04983 | 14228 ft | 331 kts | 281° |
| 2026-05-04 17:47 | 47.26824 | 19.01704 | 14856 ft | 333 kts | 281° |
| 2026-05-04 17:47 | 47.27311 | 18.98359 | 15475 ft | 336 kts | 281° |
| 2026-05-04 17:47 | 47.27796 | 18.94979 | 16085 ft | 339 kts | 281° |
| 2026-05-04 17:47 | 47.28281 | 18.91571 | 16711 ft | 341 kts | 281° |
| 2026-05-04 17:48 | 47.28768 | 18.88133 | 17293 ft | 345 kts | 281° |
| 2026-05-04 17:48 | 47.29257 | 18.84668 | 17902 ft | 347 kts | 281° |
| 2026-05-04 17:48 | 47.29748 | 18.81179 | 18515 ft | 349 kts | 281° |
| 2026-05-04 17:48 | 47.30240 | 18.77662 | 19033 ft | 352 kts | 281° |
| 2026-05-04 17:49 | 47.30736 | 18.74132 | 19630 ft | 353 kts | 281° |
| 2026-05-04 17:49 | 47.31236 | 18.70561 | 20068 ft | 364 kts | 281° |
| 2026-05-04 17:49 | 47.31763 | 18.66792 | 20203 ft | 387 kts | 281° |
| 2026-05-04 17:49 | 47.32312 | 18.62862 | 20330 ft | 408 kts | 281° |
| 2026-05-04 17:50 | 47.32898 | 18.58651 | 20462 ft | 429 kts | 281° |
| 2026-05-04 17:50 | 47.33506 | 18.54245 | 20591 ft | 449 kts | 281° |
| 2026-05-04 17:50 | 47.34134 | 18.49669 | 21037 ft | 460 kts | 281° |
| 2026-05-04 17:50 | 47.34773 | 18.45022 | 21797 ft | 465 kts | 281° |
| 2026-05-04 17:51 | 47.35415 | 18.40336 | 22195 ft | 465 kts | 281° |
| 2026-05-04 17:51 | 47.36057 | 18.35640 | 22473 ft | 469 kts | 281° |
| 2026-05-04 17:51 | 47.36696 | 18.30964 | 22748 ft | 472 kts | 281° |
| 2026-05-04 17:51 | 47.37343 | 18.26218 | 23061 ft | 474 kts | 281° |
| 2026-05-04 17:52 | 47.37990 | 18.21449 | 23389 ft | 475 kts | 281° |
| 2026-05-04 17:52 | 47.38637 | 18.16654 | 23671 ft | 477 kts | 281° |
| 2026-05-04 17:52 | 47.39284 | 18.11847 | 23945 ft | 479 kts | 281° |
| 2026-05-04 17:52 | 47.39930 | 18.07017 | 24210 ft | 480 kts | 281° |
| 2026-05-04 17:53 | 47.40573 | 18.02175 | 24509 ft | 482 kts | 281° |
| 2026-05-04 17:53 | 47.41217 | 17.97329 | 24843 ft | 481 kts | 281° |
| 2026-05-04 17:53 | 47.41860 | 17.92477 | 25254 ft | 480 kts | 281° |
| 2026-05-04 17:53 | 47.42500 | 17.87650 | 25652 ft | 479 kts | 281° |
| 2026-05-04 17:54 | 47.43130 | 17.82880 | 26021 ft | 479 kts | 281° |
| 2026-05-04 17:54 | 47.43764 | 17.78062 | 26453 ft | 478 kts | 281° |
| 2026-05-04 17:54 | 47.44393 | 17.73258 | 26898 ft | 476 kts | 282° |
| 2026-05-04 17:54 | 47.45018 | 17.68459 | 27310 ft | 475 kts | 281° |
| 2026-05-04 17:55 | 47.45640 | 17.63663 | 27703 ft | 475 kts | 281° |
| 2026-05-04 17:55 | 47.45882 | 17.61795 | 27843 ft | 476 kts | 281° |
| 2026-05-04 17:55 | 47.46500 | 17.56993 | 28267 ft | 475 kts | 281° |
| 2026-05-04 17:55 | 47.47114 | 17.52206 | 28723 ft | 474 kts | 281° |
| 2026-05-04 17:56 | 47.47727 | 17.47432 | 29210 ft | 472 kts | 282° |
| 2026-05-04 17:56 | 47.48337 | 17.42681 | 29636 ft | 471 kts | 282° |
| 2026-05-04 17:56 | 47.48947 | 17.37913 | 30082 ft | 471 kts | 281° |
| 2026-05-04 17:56 | 47.49551 | 17.33158 | 30456 ft | 470 kts | 282° |
| 2026-05-04 17:57 | 47.50150 | 17.28420 | 30910 ft | 468 kts | 282° |
| 2026-05-04 17:57 | 47.50745 | 17.23697 | 31344 ft | 466 kts | 282° |
| 2026-05-04 17:57 | 47.51329 | 17.19056 | 31763 ft | 464 kts | 282° |
| 2026-05-04 17:57 | 47.51917 | 17.14371 | 31955 ft | 464 kts | 281° |
| 2026-05-04 17:58 | 47.53082 | 17.05012 | 31976 ft | 462 kts | 281° |
| 2026-05-04 17:58 | 47.54243 | 16.95663 | 31975 ft | 462 kts | 281° |
| 2026-05-04 17:59 | 47.55387 | 16.86340 | 31970 ft | 460 kts | 281° |
| 2026-05-04 18:00 | 47.57493 | 16.72561 | 31968 ft | 456 kts | 292° |
| 2026-05-04 18:00 | 47.59876 | 16.63907 | 31965 ft | 457 kts | 292° |
| 2026-05-04 18:01 | 47.62256 | 16.55111 | 31949 ft | 457 kts | 292° |
| 2026-05-04 18:01 | 47.64605 | 16.46411 | 31945 ft | 458 kts | 292° |
| 2026-05-04 18:02 | 47.68144 | 16.33272 | 31952 ft | 457 kts | 292° |
| 2026-05-04 18:02 | 47.70497 | 16.24501 | 31945 ft | 457 kts | 292° |
| 2026-05-04 18:03 | 47.72850 | 16.15721 | 31948 ft | 458 kts | 291° |
| 2026-05-04 18:03 | 47.75181 | 16.07000 | 31950 ft | 457 kts | 291° |
| 2026-05-04 18:04 | 47.77505 | 15.98208 | 31955 ft | 457 kts | 291° |
| 2026-05-04 18:05 | 47.80600 | 15.86492 | 31951 ft | 457 kts | 291° |
| 2026-05-04 18:05 | 47.82914 | 15.77682 | 31950 ft | 457 kts | 291° |
| 2026-05-04 18:06 | 47.86370 | 15.64479 | 31963 ft | 455 kts | 290° |
| 2026-05-04 18:06 | 47.89033 | 15.54267 | 31941 ft | 455 kts | 291° |
| 2026-05-04 18:07 | 47.90950 | 15.46891 | 31926 ft | 456 kts | 290° |
| 2026-05-04 18:07 | 47.93228 | 15.38072 | 31919 ft | 456 kts | 289° |
| 2026-05-04 18:08 | 47.95491 | 15.29282 | 31928 ft | 457 kts | 290° |
| 2026-05-04 18:08 | 47.97763 | 15.20433 | 31914 ft | 457 kts | 290° |
| 2026-05-04 18:09 | 48.02287 | 15.02675 | 31912 ft | 458 kts | 289° |
| 2026-05-04 18:10 | 48.04545 | 14.93771 | 31883 ft | 460 kts | 289° |
| 2026-05-04 18:10 | 48.06802 | 14.84812 | 31888 ft | 461 kts | 289° |
| 2026-05-04 18:11 | 48.09046 | 14.75887 | 31879 ft | 461 kts | 289° |
| 2026-05-04 18:11 | 48.11300 | 14.66915 | 31881 ft | 462 kts | 289° |
| 2026-05-04 18:12 | 48.13551 | 14.57903 | 31878 ft | 463 kts | 289° |
| 2026-05-04 18:12 | 48.15794 | 14.48863 | 31879 ft | 463 kts | 289° |
| 2026-05-04 18:13 | 48.18038 | 14.39811 | 31880 ft | 464 kts | 289° |
| 2026-05-04 18:14 | 48.21388 | 14.26205 | 31883 ft | 464 kts | 289° |
| 2026-05-04 18:14 | 48.23599 | 14.17189 | 31896 ft | 464 kts | 288° |
| 2026-05-04 18:15 | 48.28031 | 13.99009 | 31884 ft | 464 kts | 288° |
| 2026-05-04 18:16 | 48.30238 | 13.89907 | 31892 ft | 464 kts | 288° |
| 2026-05-04 18:16 | 48.32432 | 13.80823 | 31124 ft | 461 kts | 288° |
| 2026-05-04 18:17 | 48.34603 | 13.71765 | 30039 ft | 467 kts | 288° |
| 2026-05-04 18:17 | 48.35700 | 13.67164 | 29855 ft | 468 kts | 288° |
| 2026-05-04 18:18 | 48.39005 | 13.53303 | 29899 ft | 470 kts | 288° |
| 2026-05-04 18:18 | 48.41201 | 13.44051 | 29905 ft | 470 kts | 288° |
| 2026-05-04 18:19 | 48.44506 | 13.30120 | 29903 ft | 471 kts | 289° |
| 2026-05-04 18:19 | 48.46905 | 13.20984 | 29906 ft | 472 kts | 290° |
| 2026-05-04 18:20 | 48.49632 | 13.11923 | 29581 ft | 474 kts | 298° |
| 2026-05-04 18:20 | 48.51304 | 13.07623 | 29094 ft | 476 kts | 298° |
| 2026-05-04 18:20 | 48.52960 | 13.03381 | 28425 ft | 476 kts | 298° |
| 2026-05-04 18:21 | 48.54642 | 12.99083 | 27757 ft | 477 kts | 298° |
| 2026-05-04 18:21 | 48.56331 | 12.94764 | 27107 ft | 478 kts | 298° |
| 2026-05-04 18:21 | 48.58019 | 12.90440 | 26479 ft | 479 kts | 298° |
| 2026-05-04 18:21 | 48.59709 | 12.86105 | 25849 ft | 479 kts | 298° |
| 2026-05-04 18:22 | 48.61399 | 12.81755 | 25230 ft | 480 kts | 298° |
| 2026-05-04 18:22 | 48.63087 | 12.77393 | 24637 ft | 481 kts | 298° |
| 2026-05-04 18:22 | 48.64772 | 12.73026 | 24053 ft | 479 kts | 298° |
| 2026-05-04 18:22 | 48.66444 | 12.68689 | 23474 ft | 476 kts | 298° |
| 2026-05-04 18:23 | 48.68104 | 12.64382 | 22804 ft | 472 kts | 298° |
| 2026-05-04 18:23 | 48.69753 | 12.60105 | 22123 ft | 469 kts | 298° |
| 2026-05-04 18:23 | 48.71390 | 12.55861 | 21504 ft | 465 kts | 298° |
| 2026-05-04 18:23 | 48.72989 | 12.51703 | 20860 ft | 461 kts | 298° |
| 2026-05-04 18:24 | 48.74591 | 12.47519 | 20239 ft | 458 kts | 298° |
| 2026-05-04 18:24 | 48.76185 | 12.43342 | 19967 ft | 456 kts | 298° |
| 2026-05-04 18:24 | 48.77768 | 12.39185 | 19919 ft | 455 kts | 298° |
| 2026-05-04 18:24 | 48.79351 | 12.35026 | 19934 ft | 456 kts | 298° |
| 2026-05-04 18:25 | 48.80939 | 12.30851 | 19947 ft | 456 kts | 298° |
| 2026-05-04 18:25 | 48.82525 | 12.26684 | 19930 ft | 456 kts | 298° |
| 2026-05-04 18:25 | 48.84108 | 12.22524 | 19933 ft | 456 kts | 298° |
| 2026-05-04 18:25 | 48.85700 | 12.18320 | 19851 ft | 452 kts | 298° |
| 2026-05-04 18:26 | 48.87225 | 12.14298 | 19555 ft | 435 kts | 298° |
| 2026-05-04 18:26 | 48.88715 | 12.10365 | 18943 ft | 426 kts | 297° |
| 2026-05-04 18:26 | 48.90180 | 12.06475 | 18317 ft | 422 kts | 297° |
| 2026-05-04 18:26 | 48.91632 | 12.02603 | 17668 ft | 421 kts | 297° |
| 2026-05-04 18:27 | 48.93075 | 11.98752 | 17013 ft | 418 kts | 297° |
| 2026-05-04 18:27 | 48.94488 | 11.94979 | 16371 ft | 412 kts | 297° |
| 2026-05-04 18:27 | 48.95899 | 11.91233 | 15740 ft | 392 kts | 297° |
| 2026-05-04 18:27 | 48.97208 | 11.87759 | 15146 ft | 380 kts | 297° |
| 2026-05-04 18:28 | 48.98511 | 11.84276 | 14542 ft | 377 kts | 296° |
| 2026-05-04 18:28 | 48.99804 | 11.80809 | 13945 ft | 375 kts | 296° |
| 2026-05-04 18:28 | 49.01084 | 11.77366 | 13307 ft | 373 kts | 296° |
| 2026-05-04 18:28 | 49.02351 | 11.73953 | 12654 ft | 371 kts | 296° |
| 2026-05-04 18:29 | 49.03617 | 11.70546 | 12014 ft | 369 kts | 296° |
| 2026-05-04 18:29 | 49.04876 | 11.67151 | 11380 ft | 366 kts | 296° |
| 2026-05-04 18:29 | 49.06110 | 11.63821 | 10971 ft | 358 kts | 296° |
| 2026-05-04 18:29 | 49.07316 | 11.60571 | 10595 ft | 347 kts | 296° |
| 2026-05-04 18:30 | 49.09547 | 11.54564 | 9888 ft | 311 kts | 296° |
| 2026-05-04 18:30 | 49.10587 | 11.51750 | 9515 ft | 298 kts | 296° |
| 2026-05-04 18:30 | 49.11582 | 11.49053 | 9121 ft | 286 kts | 296° |
| 2026-05-04 18:31 | 49.12737 | 11.46641 | 8734 ft | 280 kts | 314° |
| 2026-05-04 18:31 | 49.14351 | 11.45049 | 8354 ft | 276 kts | 338° |
| 2026-05-04 18:31 | 49.16212 | 11.44524 | 7970 ft | 270 kts | 1° |
| 2026-05-04 18:31 | 49.18019 | 11.45106 | 7599 ft | 263 kts | 25° |
| 2026-05-04 18:32 | 49.19583 | 11.46478 | 7234 ft | 256 kts | 33° |
| 2026-05-04 18:32 | 49.21094 | 11.47904 | 6971 ft | 253 kts | 33° |
| 2026-05-04 18:32 | 49.22589 | 11.49309 | 6944 ft | 252 kts | 33° |
| 2026-05-04 18:32 | 49.24087 | 11.50714 | 6952 ft | 252 kts | 33° |
| 2026-05-04 18:33 | 49.25583 | 11.52118 | 6943 ft | 252 kts | 33° |
| 2026-05-04 18:33 | 49.27078 | 11.53524 | 6890 ft | 252 kts | 33° |
| 2026-05-04 18:33 | 49.28563 | 11.54922 | 6627 ft | 250 kts | 33° |
| 2026-05-04 18:33 | 49.30042 | 11.56315 | 6378 ft | 248 kts | 33° |
| 2026-05-04 18:34 | 49.31507 | 11.57696 | 6105 ft | 246 kts | 33° |
| 2026-05-04 18:34 | 49.33010 | 11.58831 | 5838 ft | 245 kts | 13° |
| 2026-05-04 18:34 | 49.34688 | 11.58770 | 5555 ft | 244 kts | 342° |
| 2026-05-04 18:34 | 49.36123 | 11.57438 | 5263 ft | 243 kts | 319° |
| 2026-05-04 18:35 | 49.37346 | 11.55649 | 4958 ft | 242 kts | 315° |
| 2026-05-04 18:35 | 49.38525 | 11.53809 | 4671 ft | 241 kts | 315° |
| 2026-05-04 18:35 | 49.39687 | 11.51966 | 4392 ft | 240 kts | 315° |
| 2026-05-04 18:35 | 49.40835 | 11.50125 | 4125 ft | 238 kts | 314° |
| 2026-05-04 18:36 | 49.41972 | 11.48301 | 4008 ft | 236 kts | 315° |
| 2026-05-04 18:36 | 49.43070 | 11.46529 | 4007 ft | 222 kts | 314° |
| 2026-05-04 18:36 | 49.44116 | 11.44840 | 4011 ft | 216 kts | 314° |
| 2026-05-04 18:36 | 49.45149 | 11.43169 | 4016 ft | 215 kts | 314° |
| 2026-05-04 18:37 | 49.46137 | 11.41490 | 4015 ft | 216 kts | 305° |
| 2026-05-04 18:37 | 49.46715 | 11.39364 | 4019 ft | 218 kts | 281° |
| 2026-05-04 18:37 | 49.46949 | 11.37058 | 4017 ft | 219 kts | 279° |
| 2026-05-04 18:37 | 49.47179 | 11.34746 | 4017 ft | 219 kts | 279° |
| 2026-05-04 18:38 | 49.47412 | 11.32434 | 3914 ft | 218 kts | 280° |
| 2026-05-04 18:38 | 49.47637 | 11.30191 | 3685 ft | 204 kts | 280° |
| 2026-05-04 18:38 | 49.47846 | 11.28110 | 3423 ft | 190 kts | 280° |
| 2026-05-04 18:38 | 49.48038 | 11.26193 | 3212 ft | 169 kts | 281° |
| 2026-05-04 18:39 | 49.48209 | 11.24493 | 2971 ft | 154 kts | 281° |
| 2026-05-04 18:39 | 49.48370 | 11.22890 | 2774 ft | 149 kts | 281° |
| 2026-05-04 18:39 | 49.48527 | 11.21324 | 2577 ft | 147 kts | 281° |
| 2026-05-04 18:39 | 49.48679 | 11.19795 | 2396 ft | 145 kts | 282° |
| 2026-05-04 18:40 | 49.48829 | 11.18293 | 2204 ft | 143 kts | 281° |
| 2026-05-04 18:40 | 49.48981 | 11.16774 | 2010 ft | 144 kts | 282° |
| 2026-05-04 18:40 | 49.49131 | 11.15263 | 1821 ft | 142 kts | 281° |
| 2026-05-04 18:40 | 49.49280 | 11.13761 | 1631 ft | 142 kts | 281° |
| 2026-05-04 18:41 | 49.49429 | 11.12265 | 1448 ft | 142 kts | 279° |
| 2026-05-04 18:41 | 49.49565 | 11.10766 | 1237 ft | 140 kts | 281° |
| 2026-05-04 18:41 | 49.49722 | 11.09299 | 1061 ft | 135 kts | 281° |
| 2026-05-04 18:41 | 49.49854 | 11.08063 | 1030 ft | 94 kts | 278° |
| 2026-05-04 18:42 | 49.49919 | 11.07302 | 1025 ft | 60 kts | 278° |
| 2026-05-04 18:42 | 49.49928 | 11.07027 | 1022 ft | 6 kts | 207° |
| 2026-05-04 18:42 | 49.49871 | 11.07024 | 1021 ft | 9 kts | 170° |
| 2026-05-04 18:42 | 49.49804 | 11.07059 | 1021 ft | 9 kts | 158° |
| 2026-05-04 18:43 | 49.49774 | 11.07081 | 1022 ft | 0 kts | 150° |
| 2026-05-04 18:43 | 49.49767 | 11.07090 | 1023 ft | 3 kts | 140° |
| 2026-05-04 18:43 | 49.49754 | 11.07117 | 1023 ft | 5 kts | 120° |
| 2026-05-04 18:43 | 49.49743 | 11.07177 | 1022 ft | 6 kts | 102° |
| 2026-05-04 18:44 | 49.49732 | 11.07272 | 1025 ft | 11 kts | 99° |
| 2026-05-04 18:44 | 49.49722 | 11.07376 | 1028 ft | 21 kts | 97° |
| 2026-05-04 18:44 | 49.49693 | 11.07694 | 1032 ft | 23 kts | 98° |
| 2026-05-04 18:44 | 49.49591 | 11.07744 | 1030 ft | 16 kts | 192° |
| 2026-05-04 18:45 | 49.49539 | 11.07729 | 1028 ft | 5 kts | 189° |
| 2026-05-04 18:45 | 49.49524 | 11.07725 | 1025 ft | 0 kts | 188° |